createdAt,value
2022-08-16T00:00:48.370Z,2789
2022-08-16T00:01:41.762Z,2768
2022-08-16T00:02:41.613Z,2771
2022-08-16T00:03:41.604Z,2784
2022-08-16T00:05:00.051Z,2824
2022-08-16T00:05:48.367Z,2796
2022-08-16T00:06:41.577Z,2819
2022-08-16T00:07:41.565Z,2784
2022-08-16T00:08:45.934Z,2773
2022-08-16T00:09:41.820Z,2780
2022-08-16T00:10:44.119Z,2775
2022-08-16T00:11:41.993Z,2810
2022-08-16T00:12:41.543Z,2778
2022-08-16T00:13:42.502Z,2784
2022-08-16T00:14:43.911Z,2824
2022-08-16T00:15:51.919Z,2808
2022-08-16T00:17:01.435Z,2798
2022-08-16T00:17:56.258Z,2748
2022-08-16T00:18:48.931Z,2780
2022-08-16T00:19:42.231Z,2791
2022-08-16T00:20:45.569Z,2821
2022-08-16T00:21:41.570Z,2849
2022-08-16T00:22:42.793Z,2847
2022-08-16T00:23:46.299Z,2868
2022-08-16T00:24:41.551Z,2898
2022-08-16T00:26:35.904Z,2932
2022-08-16T00:26:45.283Z,2905
2022-08-16T00:27:41.571Z,2900
2022-08-16T00:28:44.050Z,2891
2022-08-16T00:29:41.517Z,2958
2022-08-16T00:30:41.530Z,2916
2022-08-16T00:31:58.664Z,2967
2022-08-16T00:32:49.247Z,2918
2022-08-16T00:33:41.523Z,2921
2022-08-16T00:34:53.040Z,2868
2022-08-16T00:35:41.553Z,2872
2022-08-16T00:36:47.310Z,2879
2022-08-16T00:38:44.194Z,2863
2022-08-16T00:39:41.634Z,2898
2022-08-16T00:40:43.847Z,2900
2022-08-16T00:41:41.517Z,2916
2022-08-16T00:42:41.595Z,2928
2022-08-16T00:43:46.726Z,2935
2022-08-16T00:44:44.021Z,2907
2022-08-16T00:46:00.306Z,2900
2022-08-16T00:46:53.003Z,2893
2022-08-16T00:47:49.092Z,2900
2022-08-16T00:48:45.444Z,2891
2022-08-16T00:49:44.805Z,2905
2022-08-16T00:50:41.549Z,2918
2022-08-16T00:51:41.555Z,2900
2022-08-16T00:52:45.959Z,2886
2022-08-16T00:53:41.557Z,2928
2022-08-16T00:54:41.503Z,2893
2022-08-16T00:55:41.505Z,2875
2022-08-16T00:56:57.050Z,2877
2022-08-16T00:57:59.939Z,2865
2022-08-16T00:58:41.594Z,2881
2022-08-16T00:59:54.752Z,2856
2022-08-16T01:00:41.991Z,2879
2022-08-16T01:01:44.173Z,2944
2022-08-16T01:02:41.536Z,2921
2022-08-16T01:03:41.906Z,2886
2022-08-16T01:04:41.520Z,2868
2022-08-16T01:05:43.881Z,2828
2022-08-16T01:06:49.223Z,2831
2022-08-16T01:07:52.049Z,2895
2022-08-16T01:08:56.849Z,2858
2022-08-16T01:09:50.100Z,2888
2022-08-16T01:10:41.472Z,2916
2022-08-16T01:11:54.091Z,2953
2022-08-16T01:12:44.107Z,2921
2022-08-16T01:13:41.474Z,2900
2022-08-16T01:14:41.494Z,2911
2022-08-16T01:15:43.106Z,2888
2022-08-16T01:16:43.911Z,2916
2022-08-16T01:17:42.163Z,2875
2022-08-16T01:18:44.201Z,2888
2022-08-16T01:19:41.857Z,2868
2022-08-16T01:20:41.617Z,2872
2022-08-16T01:21:41.526Z,2879
2022-08-16T01:22:48.280Z,2856
2022-08-16T01:24:00.807Z,2868
2022-08-16T01:24:54.095Z,2877
2022-08-16T01:25:41.518Z,2969
2022-08-16T01:27:41.491Z,2879
2022-08-16T01:28:45.502Z,2905
2022-08-16T01:29:57.892Z,2918
2022-08-16T01:30:50.466Z,2902
2022-08-16T01:31:42.804Z,2907
2022-08-16T01:32:46.690Z,2918
2022-08-16T01:33:44.688Z,2905
2022-08-16T01:34:47.045Z,2918
2022-08-16T01:35:41.457Z,2907
2022-08-16T01:36:41.873Z,2870
2022-08-16T01:37:42.384Z,2844
2022-08-16T01:38:46.887Z,2833
2022-08-16T01:39:41.523Z,2831
2022-08-16T01:40:41.505Z,2821
2022-08-16T01:41:44.280Z,2810
2022-08-16T01:42:42.403Z,2794
2022-08-16T01:43:44.506Z,2791
2022-08-16T01:44:41.498Z,2759
2022-08-16T01:45:44.820Z,2766
2022-08-16T01:47:49.463Z,2736
2022-08-16T01:48:43.704Z,2718
2022-08-16T01:50:42.483Z,2701
2022-08-16T01:51:16.224Z,2734
2022-08-16T01:51:41.845Z,2713
2022-08-16T01:52:46.537Z,2692
2022-08-16T01:53:41.990Z,2699
2022-08-16T01:54:48.809Z,2757
2022-08-16T01:55:53.673Z,2713
2022-08-16T01:56:51.525Z,2678
2022-08-16T01:57:53.787Z,2681
2022-08-16T01:58:47.996Z,2713
2022-08-16T01:59:41.465Z,2646
2022-08-16T02:00:49.270Z,2614
2022-08-16T02:01:41.449Z,2634
2022-08-16T02:02:43.937Z,2625
2022-08-16T02:04:10.844Z,2646
2022-08-16T02:04:54.565Z,2597
2022-08-16T02:05:46.822Z,2593
2022-08-16T02:06:46.910Z,2588
2022-08-16T02:07:44.137Z,2616
2022-08-16T02:08:44.070Z,2597
2022-08-16T02:09:43.872Z,2595
2022-08-16T02:10:48.231Z,2531
2022-08-16T02:11:47.943Z,2533
2022-08-16T02:12:51.285Z,2544
2022-08-16T02:13:41.719Z,2533
2022-08-16T02:14:41.454Z,2577
2022-08-16T02:15:43.845Z,2611
2022-08-16T02:16:44.113Z,2607
2022-08-16T02:17:41.410Z,2584
2022-08-16T02:18:44.003Z,2554
2022-08-16T02:19:58.922Z,2551
2022-08-16T02:20:45.512Z,2537
2022-08-16T02:22:09.052Z,2570
2022-08-16T02:22:43.446Z,2549
2022-08-16T02:23:43.757Z,2524
2022-08-16T02:24:42.228Z,2519
2022-08-16T02:25:50.926Z,2625
2022-08-16T02:26:43.629Z,2563
2022-08-16T02:27:41.477Z,2556
2022-08-16T02:28:47.223Z,2556
2022-08-16T02:30:47.632Z,2517
2022-08-16T02:32:04.110Z,2498
2022-08-16T02:32:50.397Z,2505
2022-08-16T02:33:50.636Z,2519
2022-08-16T02:34:41.411Z,2484
2022-08-16T02:35:53.986Z,2526
2022-08-16T02:36:49.758Z,2510
2022-08-16T02:37:52.619Z,2501
2022-08-16T02:38:43.956Z,2471
2022-08-16T02:39:44.652Z,2510
2022-08-16T02:40:44.514Z,2533
2022-08-16T02:41:41.486Z,2489
2022-08-16T02:42:49.686Z,2475
2022-08-16T02:43:44.088Z,2537
2022-08-16T02:44:46.510Z,2521
2022-08-16T02:45:43.942Z,2496
2022-08-16T02:46:41.393Z,2441
2022-08-16T02:48:00.679Z,2429
2022-08-16T02:48:47.449Z,2413
2022-08-16T02:50:55.296Z,2413
2022-08-16T02:51:43.462Z,2431
2022-08-16T02:53:41.427Z,2443
2022-08-16T02:54:41.409Z,2427
2022-08-16T02:55:43.880Z,2424
2022-08-16T02:56:41.400Z,2457
2022-08-16T02:57:54.299Z,2424
2022-08-16T02:58:41.371Z,2394
2022-08-16T02:59:41.666Z,2424
2022-08-16T03:00:45.350Z,2445
2022-08-16T03:01:43.759Z,2415
2022-08-16T03:02:44.312Z,2417
2022-08-16T03:04:39.792Z,2457
2022-08-16T03:04:52.541Z,2461
2022-08-16T03:05:41.444Z,2450
2022-08-16T03:06:43.134Z,2431
2022-08-16T03:07:41.365Z,2417
2022-08-16T03:08:51.801Z,2413
2022-08-16T03:09:41.385Z,2404
2022-08-16T03:10:59.144Z,2364
2022-08-16T03:11:41.363Z,2376
2022-08-16T03:12:55.093Z,2408
2022-08-16T03:13:41.362Z,2387
2022-08-16T03:14:42.739Z,2383
2022-08-16T03:15:41.348Z,2399
2022-08-16T03:16:59.461Z,2360
2022-08-16T03:17:53.546Z,2353
2022-08-16T03:18:42.804Z,2339
2022-08-16T03:19:56.550Z,2362
2022-08-16T03:21:41.414Z,2337
2022-08-16T03:22:45.327Z,2346
2022-08-16T03:23:41.394Z,2383
2022-08-16T03:24:44.718Z,2350
2022-08-16T03:25:44.657Z,2380
2022-08-16T03:26:43.618Z,2424
2022-08-16T03:27:41.356Z,2404
2022-08-16T03:28:41.465Z,2452
2022-08-16T03:29:42.759Z,2471
2022-08-16T03:30:44.064Z,2524
2022-08-16T03:31:41.350Z,2577
2022-08-16T03:32:41.313Z,2577
2022-08-16T03:33:44.159Z,2556
2022-08-16T03:34:49.897Z,2561
2022-08-16T03:35:43.990Z,2563
2022-08-16T03:36:41.333Z,2572
2022-08-16T03:38:01.707Z,2558
2022-08-16T03:38:41.661Z,2542
2022-08-16T03:39:44.394Z,2561
2022-08-16T03:40:41.347Z,2542
2022-08-16T03:41:50.162Z,2482
2022-08-16T03:43:18.632Z,2445
2022-08-16T03:43:51.242Z,2445
2022-08-16T03:45:41.443Z,2487
2022-08-16T03:46:47.798Z,2542
2022-08-16T03:47:44.230Z,2524
2022-08-16T03:48:41.383Z,2528
2022-08-16T03:49:41.310Z,2554
2022-08-16T03:50:41.363Z,2563
2022-08-16T03:51:41.313Z,2473
2022-08-16T03:52:43.710Z,2434
2022-08-16T03:53:41.612Z,2443
2022-08-16T03:54:53.275Z,2422
2022-08-16T03:56:56.631Z,2431
2022-08-16T03:57:41.301Z,2447
2022-08-16T03:58:41.291Z,2482
2022-08-16T03:59:43.577Z,2401
2022-08-16T04:00:44.441Z,2413
2022-08-16T04:01:43.764Z,2397
2022-08-16T04:02:41.299Z,2394
2022-08-16T04:03:41.300Z,2360
2022-08-16T04:04:46.425Z,2408
2022-08-16T04:05:46.937Z,2420
2022-08-16T04:07:44.199Z,2443
2022-08-16T04:08:41.294Z,2533
2022-08-16T04:09:44.381Z,2602
2022-08-16T04:10:41.263Z,2618
2022-08-16T04:11:41.364Z,2621
2022-08-16T04:12:54.282Z,2556
2022-08-16T04:14:00.334Z,2510
2022-08-16T04:14:46.840Z,2434
2022-08-16T04:15:46.549Z,2471
2022-08-16T04:16:41.311Z,2563
2022-08-16T04:17:41.291Z,2551
2022-08-16T04:18:43.787Z,2584
2022-08-16T04:19:45.390Z,2577
2022-08-16T04:20:41.351Z,2558
2022-08-16T04:21:47.362Z,2544
2022-08-16T04:22:44.099Z,2547
2022-08-16T04:23:41.271Z,2551
2022-08-16T04:24:43.592Z,2549
2022-08-16T04:25:41.304Z,2577
2022-08-16T04:26:45.897Z,2510
2022-08-16T04:27:41.270Z,2487
2022-08-16T04:28:55.743Z,2494
2022-08-16T04:29:46.631Z,2510
2022-08-16T04:30:44.226Z,2512
2022-08-16T04:31:43.764Z,2526
2022-08-16T04:32:41.347Z,2542
2022-08-16T04:33:50.702Z,2556
2022-08-16T04:34:41.263Z,2558
2022-08-16T04:35:41.649Z,2572
2022-08-16T04:36:41.358Z,2547
2022-08-16T04:37:42.202Z,2528
2022-08-16T04:38:44.416Z,2535
2022-08-16T04:39:47.004Z,2528
2022-08-16T04:40:42.375Z,2533
2022-08-16T04:41:41.274Z,2542
2022-08-16T04:42:41.322Z,2540
2022-08-16T04:43:43.670Z,2554
2022-08-16T04:44:53.937Z,2531
2022-08-16T04:45:44.240Z,2577
2022-08-16T04:47:01.056Z,2611
2022-08-16T04:47:41.283Z,2618
2022-08-16T04:48:43.727Z,2621
2022-08-16T04:49:45.757Z,2614
2022-08-16T04:50:43.480Z,2630
2022-08-16T04:51:44.283Z,2667
2022-08-16T04:52:41.389Z,2651
2022-08-16T04:53:41.626Z,2674
2022-08-16T04:54:43.228Z,2671
2022-08-16T04:55:43.706Z,2688
2022-08-16T04:56:46.291Z,2669
2022-08-16T04:57:53.450Z,2674
2022-08-16T04:58:46.009Z,2674
2022-08-16T04:59:41.254Z,2692
2022-08-16T05:00:41.321Z,2724
2022-08-16T05:01:57.557Z,2754
2022-08-16T05:02:42.880Z,2768
2022-08-16T05:03:41.731Z,2801
2022-08-16T05:04:41.225Z,2789
2022-08-16T05:05:55.595Z,2789
2022-08-16T05:06:45.231Z,2801
2022-08-16T05:07:58.439Z,2789
2022-08-16T05:08:47.307Z,2787
2022-08-16T05:09:45.171Z,2808
2022-08-16T05:10:41.262Z,2796
2022-08-16T05:12:44.806Z,2849
2022-08-16T05:13:42.614Z,2891
2022-08-16T05:14:46.275Z,2881
2022-08-16T05:15:41.301Z,2868
2022-08-16T05:16:43.585Z,2879
2022-08-16T05:17:41.250Z,2872
2022-08-16T05:18:43.261Z,2881
2022-08-16T05:19:41.260Z,2921
2022-08-16T05:21:44.031Z,2928
2022-08-16T05:23:47.843Z,2923
2022-08-16T05:24:43.839Z,2886
2022-08-16T05:25:48.741Z,2884
2022-08-16T05:26:51.217Z,2907
2022-08-16T05:27:43.138Z,2895
2022-08-16T05:28:41.285Z,2900
2022-08-16T05:29:57.490Z,2923
2022-08-16T05:30:41.243Z,2923
2022-08-16T05:31:48.063Z,2932
2022-08-16T05:32:45.856Z,2937
2022-08-16T05:33:42.256Z,2967
2022-08-16T05:34:41.440Z,2944
2022-08-16T05:35:44.239Z,2981
2022-08-16T05:36:41.251Z,2992
2022-08-16T05:37:41.203Z,3011
2022-08-16T05:38:41.262Z,3025
2022-08-16T05:39:41.229Z,3027
2022-08-16T05:40:41.251Z,3027
2022-08-16T05:41:45.260Z,3071
2022-08-16T05:42:41.522Z,3153
2022-08-16T05:44:44.264Z,3198
2022-08-16T05:45:41.272Z,3229
2022-08-16T05:46:43.563Z,3173
2022-08-16T05:47:43.233Z,3274
2022-08-16T05:48:41.230Z,3198
2022-08-16T05:49:44.014Z,3188
2022-08-16T05:50:41.663Z,3183
2022-08-16T05:51:41.587Z,3163
2022-08-16T05:52:44.986Z,3148
2022-08-16T05:53:43.930Z,3178
2022-08-16T05:55:02.047Z,3118
2022-08-16T05:56:41.181Z,3239
2022-08-16T05:57:41.943Z,3193
2022-08-16T05:58:41.188Z,3148
2022-08-16T05:59:43.747Z,3118
2022-08-16T06:00:49.597Z,3188
2022-08-16T06:01:41.233Z,3269
2022-08-16T06:02:41.293Z,3309
2022-08-16T06:03:43.591Z,3264
2022-08-16T06:04:42.320Z,3294
2022-08-16T06:06:41.195Z,3284
2022-08-16T06:07:43.441Z,3269
2022-08-16T06:08:42.119Z,3218
2022-08-16T06:09:46.634Z,3289
2022-08-16T06:11:10.466Z,3254
2022-08-16T06:11:43.132Z,3264
2022-08-16T06:12:41.237Z,3203
2022-08-16T06:13:42.370Z,3309
2022-08-16T06:14:58.415Z,3279
2022-08-16T06:15:41.554Z,3329
2022-08-16T06:16:41.184Z,3319
2022-08-16T06:17:44.520Z,3264
2022-08-16T06:18:41.210Z,3259
2022-08-16T06:19:44.625Z,3279
2022-08-16T06:20:55.080Z,3249
2022-08-16T06:21:46.169Z,3178
2022-08-16T06:22:44.642Z,3213
2022-08-16T06:24:53.520Z,3178
2022-08-16T06:24:54.155Z,3148
2022-08-16T06:25:41.160Z,3269
2022-08-16T06:26:57.906Z,3324
2022-08-16T06:27:41.171Z,3284
2022-08-16T06:28:41.159Z,3274
2022-08-16T06:29:41.226Z,3229
2022-08-16T06:31:50.601Z,3223
2022-08-16T06:33:58.581Z,3379
2022-08-16T06:34:57.204Z,3399
2022-08-16T06:35:46.172Z,3504
2022-08-16T06:36:43.604Z,3474
2022-08-16T06:37:42.968Z,3449
2022-08-16T06:38:58.476Z,3424
2022-08-16T06:39:49.700Z,3379
2022-08-16T06:40:41.161Z,3379
2022-08-16T06:41:43.822Z,3404
2022-08-16T06:42:47.869Z,3439
2022-08-16T06:43:41.171Z,3364
2022-08-16T06:44:43.801Z,3359
2022-08-16T06:45:43.244Z,3339
2022-08-16T06:46:43.446Z,3449
2022-08-16T06:47:56.123Z,3414
2022-08-16T06:48:42.664Z,3364
2022-08-16T06:49:41.165Z,3359
2022-08-16T06:50:43.547Z,3319
2022-08-16T06:51:46.448Z,3384
2022-08-16T06:53:41.126Z,3519
2022-08-16T06:54:41.230Z,3444
2022-08-16T06:55:43.737Z,3469
2022-08-16T06:56:43.492Z,3459
2022-08-16T06:57:43.935Z,3464
2022-08-16T06:58:48.347Z,3484
2022-08-16T06:59:52.261Z,3449
2022-08-16T07:00:44.364Z,3479
2022-08-16T07:01:45.045Z,3539
2022-08-16T07:02:41.155Z,3575
2022-08-16T07:03:54.477Z,3575
2022-08-16T07:04:43.513Z,3534
2022-08-16T07:05:58.569Z,3464
2022-08-16T07:06:43.089Z,3384
2022-08-16T07:08:41.099Z,3474
2022-08-16T07:09:41.137Z,3424
2022-08-16T07:10:41.716Z,3464
2022-08-16T07:12:47.500Z,3374
2022-08-16T07:14:00.416Z,3464
2022-08-16T07:14:46.159Z,3384
2022-08-16T07:15:50.559Z,3379
2022-08-16T07:17:41.372Z,3780
2022-08-16T07:18:58.991Z,3765
2022-08-16T07:20:30.363Z,3810
2022-08-16T07:20:48.622Z,3840
2022-08-16T07:21:46.422Z,3830
2022-08-16T07:22:41.103Z,3760
2022-08-16T07:23:43.935Z,3795
2022-08-16T07:24:45.761Z,3730
2022-08-16T07:25:41.083Z,3765
2022-08-16T07:26:41.099Z,3670
2022-08-16T07:27:41.075Z,3695
2022-08-16T07:28:46.238Z,3710
2022-08-16T07:29:41.064Z,3775
2022-08-16T07:30:46.613Z,3845
2022-08-16T07:31:43.979Z,3820
2022-08-16T07:32:43.262Z,3755
2022-08-16T07:33:51.725Z,3745
2022-08-16T07:34:48.977Z,3690
2022-08-16T07:35:44.048Z,3585
2022-08-16T07:36:45.118Z,3449
2022-08-16T07:37:43.672Z,3459
2022-08-16T07:38:41.060Z,3424
2022-08-16T07:39:43.703Z,3414
2022-08-16T07:40:59.789Z,3349
2022-08-16T07:41:46.663Z,3344
2022-08-16T07:42:41.102Z,3289
2022-08-16T07:43:43.502Z,3349
2022-08-16T07:44:50.209Z,3344
2022-08-16T07:45:43.180Z,3329
2022-08-16T07:46:41.029Z,3254
2022-08-16T07:47:41.946Z,3193
2022-08-16T07:48:43.573Z,3178
2022-08-16T07:49:57.858Z,3173
2022-08-16T07:50:56.240Z,3108
2022-08-16T07:51:46.878Z,3071
2022-08-16T07:52:43.157Z,3055
2022-08-16T07:54:45.858Z,3093
2022-08-16T07:55:45.942Z,3093
2022-08-16T07:56:43.725Z,3148
2022-08-16T07:57:58.035Z,3229
2022-08-16T07:58:41.088Z,3324
2022-08-16T08:00:04.476Z,3404
2022-08-16T08:00:41.127Z,3414
2022-08-16T08:01:41.045Z,3454
2022-08-16T08:02:41.148Z,3494
2022-08-16T08:03:49.260Z,3559
2022-08-16T08:04:46.218Z,3534
2022-08-16T08:05:44.098Z,3469
2022-08-16T08:06:44.023Z,3444
2022-08-16T08:09:01.714Z,3434
2022-08-16T08:09:43.542Z,3409
2022-08-16T08:10:43.311Z,3454
2022-08-16T08:11:41.035Z,3494
2022-08-16T08:12:41.200Z,3479
2022-08-16T08:13:42.273Z,3489
2022-08-16T08:14:41.039Z,3299
2022-08-16T08:16:45.543Z,3128
2022-08-16T08:17:43.217Z,3153
2022-08-16T08:18:41.013Z,3163
2022-08-16T08:19:53.182Z,3108
2022-08-16T08:20:41.040Z,3108
2022-08-16T08:22:00.585Z,3083
2022-08-16T08:22:41.598Z,3133
2022-08-16T08:23:42.467Z,3068
2022-08-16T08:24:44.143Z,3036
2022-08-16T08:25:54.263Z,3029
2022-08-16T08:26:43.223Z,3015
2022-08-16T08:27:41.057Z,3011
2022-08-16T08:28:41.057Z,2992
2022-08-16T08:29:42.568Z,2976
2022-08-16T08:30:57.132Z,2953
2022-08-16T08:31:41.073Z,2932
2022-08-16T08:32:58.421Z,2900
2022-08-16T08:33:47.115Z,2925
2022-08-16T08:34:40.981Z,2946
2022-08-16T08:35:43.065Z,2985
2022-08-16T08:36:44.062Z,3008
2022-08-16T08:37:55.579Z,3050
2022-08-16T08:38:45.717Z,3055
2022-08-16T08:39:53.362Z,3061
2022-08-16T08:40:41.007Z,3045
2022-08-16T08:41:41.024Z,3103
2022-08-16T08:42:41.127Z,3208
2022-08-16T08:43:41.554Z,3153
2022-08-16T08:44:40.986Z,3168
2022-08-16T08:45:47.151Z,3229
2022-08-16T08:46:41.013Z,3218
2022-08-16T08:47:43.189Z,3309
2022-08-16T08:48:43.805Z,3239
2022-08-16T08:49:55.045Z,3329
2022-08-16T08:50:50.202Z,3464
2022-08-16T08:51:41.325Z,3489
2022-08-16T08:52:43.640Z,3394
2022-08-16T08:53:41.002Z,3580
2022-08-16T08:54:43.126Z,3429
2022-08-16T08:55:46.044Z,3379
2022-08-16T08:56:45.736Z,3244
2022-08-16T08:58:41.026Z,3223
2022-08-16T08:59:43.399Z,3143
2022-08-16T09:01:16.809Z,3064
2022-08-16T09:01:56.571Z,3029
2022-08-16T09:02:41.445Z,2995
2022-08-16T09:03:43.107Z,2990
2022-08-16T09:04:40.987Z,3018
2022-08-16T09:05:40.973Z,2997
2022-08-16T09:06:43.906Z,2978
2022-08-16T09:08:00.902Z,3034
2022-08-16T09:08:47.302Z,3029
2022-08-16T09:09:41.390Z,3020
2022-08-16T09:10:41.060Z,3061
2022-08-16T09:11:51.103Z,3113
2022-08-16T09:12:41.094Z,3153
2022-08-16T09:13:47.103Z,3208
2022-08-16T09:14:49.680Z,3213
2022-08-16T09:15:40.961Z,3264
2022-08-16T09:17:01.329Z,3284
2022-08-16T09:17:51.709Z,3279
2022-08-16T09:18:41.092Z,3234
2022-08-16T09:19:43.945Z,3188
2022-08-16T09:20:58.370Z,3163
2022-08-16T09:21:40.943Z,3254
2022-08-16T09:22:51.642Z,3374
2022-08-16T09:23:40.964Z,3494
2022-08-16T09:24:52.336Z,3529
2022-08-16T09:25:41.360Z,3585
2022-08-16T09:26:44.574Z,3605
2022-08-16T09:27:57.272Z,3650
2022-08-16T09:29:14.505Z,3645
2022-08-16T09:29:45.224Z,3635
2022-08-16T09:30:43.319Z,3610
2022-08-16T09:31:58.671Z,3610
2022-08-16T09:32:46.940Z,3655
2022-08-16T09:33:41.287Z,3685
2022-08-16T09:34:40.926Z,3735
2022-08-16T09:35:42.822Z,3670
2022-08-16T09:36:46.224Z,3730
2022-08-16T09:37:40.900Z,3690
2022-08-16T09:38:48.178Z,3580
2022-08-16T09:39:42.711Z,3519
2022-08-16T09:41:41.353Z,3559
2022-08-16T09:42:56.008Z,3575
2022-08-16T09:43:58.009Z,3564
2022-08-16T09:45:10.644Z,3549
2022-08-16T09:45:43.171Z,3559
2022-08-16T09:46:48.661Z,3459
2022-08-16T09:47:57.013Z,3404
2022-08-16T09:48:44.790Z,3369
2022-08-16T09:49:43.728Z,3359
2022-08-16T09:50:40.909Z,3239
2022-08-16T09:51:43.089Z,3229
2022-08-16T09:52:47.949Z,3269
2022-08-16T09:53:40.931Z,3364
2022-08-16T09:54:44.460Z,3349
2022-08-16T09:55:44.200Z,3269
2022-08-16T09:56:52.564Z,3309
2022-08-16T09:57:43.987Z,3419
2022-08-16T09:59:05.651Z,3304
2022-08-16T09:59:42.069Z,3334
2022-08-16T10:00:44.844Z,3399
2022-08-16T10:01:43.542Z,3434
2022-08-16T10:02:44.465Z,3504
2022-08-16T10:04:02.407Z,3544
2022-08-16T10:04:54.341Z,3544
2022-08-16T10:05:43.514Z,3494
2022-08-16T10:06:40.957Z,3464
2022-08-16T10:09:44.834Z,3570
2022-08-16T10:10:43.019Z,3554
2022-08-16T10:11:49.915Z,3595
2022-08-16T10:12:42.132Z,3580
2022-08-16T10:13:40.927Z,3645
2022-08-16T10:14:40.893Z,3645
2022-08-16T10:15:43.588Z,3735
2022-08-16T10:16:43.565Z,3710
2022-08-16T10:17:40.892Z,3765
2022-08-16T10:19:40.910Z,3755
2022-08-16T10:20:40.884Z,3760
2022-08-16T10:21:43.730Z,3740
2022-08-16T10:23:43.253Z,3479
2022-08-16T10:24:56.218Z,3419
2022-08-16T10:27:20.112Z,3374
2022-08-16T10:27:56.820Z,3284
2022-08-16T10:28:43.434Z,3229
2022-08-16T10:30:00.055Z,3223
2022-08-16T10:30:43.640Z,3213
2022-08-16T10:31:44.384Z,3244
2022-08-16T10:32:40.877Z,3188
2022-08-16T10:33:43.536Z,3148
2022-08-16T10:34:41.010Z,3118
2022-08-16T10:35:46.700Z,3178
2022-08-16T10:36:40.900Z,3329
2022-08-16T10:37:40.930Z,3339
2022-08-16T10:38:42.087Z,3389
2022-08-16T10:39:42.019Z,3469
2022-08-16T10:41:43.899Z,3439
2022-08-16T10:42:43.840Z,3454
2022-08-16T10:43:40.823Z,3414
2022-08-16T10:44:40.951Z,3384
2022-08-16T10:45:42.092Z,3509
2022-08-16T10:46:42.238Z,3730
2022-08-16T10:47:40.861Z,3815
2022-08-16T10:48:40.875Z,3750
2022-08-16T10:49:40.891Z,3745
2022-08-16T10:50:40.850Z,3695
2022-08-16T10:52:01.201Z,3650
2022-08-16T10:53:40.873Z,3564
2022-08-16T10:54:59.567Z,3509
2022-08-16T10:55:45.221Z,3529
2022-08-16T10:57:18.864Z,3509
2022-08-16T10:57:43.688Z,3424
2022-08-16T10:58:40.893Z,3359
2022-08-16T10:59:52.995Z,3239
2022-08-16T11:00:40.913Z,3173
2022-08-16T11:01:44.289Z,3203
2022-08-16T11:03:37.432Z,3143
2022-08-16T11:03:42.138Z,3178
2022-08-16T11:05:06.843Z,3148
2022-08-16T11:07:08.012Z,3178
2022-08-16T11:07:51.464Z,3183
2022-08-16T11:08:45.777Z,3163
2022-08-16T11:09:43.870Z,3153
2022-08-16T11:12:43.279Z,3066
2022-08-16T11:13:59.850Z,3218
2022-08-16T11:15:11.203Z,3274
2022-08-16T11:15:41.911Z,3409
2022-08-16T11:17:44.923Z,3494
2022-08-16T11:19:04.741Z,3494
2022-08-16T11:20:42.691Z,3785
2022-08-16T11:24:44.638Z,3931
2022-08-16T11:27:18.527Z,4006
2022-08-16T11:27:40.786Z,4036
2022-08-16T11:29:14.057Z,3916
2022-08-16T11:29:40.867Z,3911
2022-08-16T11:30:57.349Z,3750
2022-08-16T11:31:46.023Z,3504
2022-08-16T11:32:44.023Z,3434
2022-08-16T11:33:56.330Z,3334
2022-08-16T11:35:05.824Z,3198
2022-08-16T11:35:44.392Z,3213
2022-08-16T11:36:53.815Z,3158
2022-08-16T11:38:51.627Z,3148
2022-08-16T11:39:40.834Z,3118
2022-08-16T11:40:44.322Z,3183
2022-08-16T11:41:43.825Z,3158
2022-08-16T11:42:40.814Z,3249
2022-08-16T11:43:41.107Z,3394
2022-08-16T11:44:57.082Z,3539
2022-08-16T11:46:44.878Z,3745
2022-08-16T11:47:40.826Z,3710
2022-08-16T11:48:40.860Z,3564
2022-08-16T11:49:43.467Z,3544
2022-08-16T11:50:40.780Z,3585
2022-08-16T11:51:40.756Z,3710
2022-08-16T11:52:40.758Z,3635
2022-08-16T11:53:41.144Z,3680
2022-08-16T11:54:40.775Z,3630
2022-08-16T11:55:40.772Z,3660
2022-08-16T11:56:53.116Z,3585
2022-08-16T11:57:40.943Z,3580
2022-08-16T11:58:40.828Z,3449
2022-08-16T11:59:46.234Z,3494
2022-08-16T12:00:50.633Z,3494
2022-08-16T12:01:44.442Z,3529
2022-08-16T12:02:45.844Z,3544
2022-08-16T12:03:43.126Z,3570
2022-08-16T12:04:45.924Z,3590
2022-08-16T12:05:43.257Z,3504
2022-08-16T12:06:43.101Z,3424
2022-08-16T12:07:43.637Z,3359
2022-08-16T12:08:41.324Z,3218
2022-08-16T12:09:43.408Z,3218
2022-08-16T12:10:40.811Z,3163
2022-08-16T12:11:40.792Z,3178
2022-08-16T12:12:43.691Z,3183
2022-08-16T12:13:46.006Z,3061
2022-08-16T12:14:40.781Z,3004
2022-08-16T12:15:40.780Z,3036
2022-08-16T12:16:40.753Z,3123
2022-08-16T12:17:40.728Z,3319
2022-08-16T12:19:40.758Z,3509
2022-08-16T12:20:42.795Z,3484
2022-08-16T12:21:59.144Z,3554
2022-08-16T12:22:46.156Z,3464
2022-08-16T12:23:48.077Z,3384
2022-08-16T12:25:42.820Z,3454
2022-08-16T12:26:40.716Z,3499
2022-08-16T12:27:40.729Z,3444
2022-08-16T12:28:54.848Z,3439
2022-08-16T12:29:43.050Z,3590
2022-08-16T12:30:40.731Z,3625
2022-08-16T12:32:00.465Z,3710
2022-08-16T12:32:41.736Z,3630
2022-08-16T12:33:42.840Z,3479
2022-08-16T12:35:01.147Z,3444
2022-08-16T12:35:43.523Z,3289
2022-08-16T12:36:43.709Z,3203
2022-08-16T12:37:42.076Z,3108
2022-08-16T12:38:46.750Z,3059
2022-08-16T12:39:51.283Z,3045
2022-08-16T12:40:45.973Z,3011
2022-08-16T12:41:45.191Z,3031
2022-08-16T12:42:40.762Z,3066
2022-08-16T12:43:45.184Z,3071
2022-08-16T12:44:40.743Z,3088
2022-08-16T12:45:41.106Z,3163
2022-08-16T12:46:43.012Z,3289
2022-08-16T12:47:40.733Z,3339
2022-08-16T12:48:42.345Z,3399
2022-08-16T12:49:43.064Z,3539
2022-08-16T12:50:42.946Z,3645
2022-08-16T12:51:58.161Z,3875
2022-08-16T12:52:52.211Z,4071
2022-08-16T12:53:40.697Z,4282
2022-08-16T12:54:40.759Z,4412
2022-08-16T12:55:43.928Z,4477
2022-08-16T12:56:43.214Z,4522
2022-08-16T12:57:42.983Z,4267
2022-08-16T12:58:49.858Z,4021
2022-08-16T12:59:43.337Z,3911
2022-08-16T13:00:43.197Z,3710
2022-08-16T13:01:40.745Z,3524
2022-08-16T13:02:40.702Z,3464
2022-08-16T13:03:40.888Z,3314
2022-08-16T13:04:40.683Z,3218
2022-08-16T13:05:45.032Z,3128
2022-08-16T13:06:43.716Z,3078
2022-08-16T13:07:45.330Z,3041
2022-08-16T13:08:40.684Z,3050
2022-08-16T13:09:43.288Z,3041
2022-08-16T13:10:43.166Z,3059
2022-08-16T13:11:48.286Z,3057
2022-08-16T13:12:42.741Z,3098
2022-08-16T13:13:40.688Z,3168
2022-08-16T13:14:42.914Z,3188
2022-08-16T13:15:50.049Z,3234
2022-08-16T13:17:43.287Z,3198
2022-08-16T13:18:42.841Z,3203
2022-08-16T13:20:08.518Z,3234
2022-08-16T13:20:40.717Z,3098
2022-08-16T13:21:40.725Z,3001
2022-08-16T13:23:43.986Z,3052
2022-08-16T13:24:40.696Z,3006
2022-08-16T13:25:40.712Z,2983
2022-08-16T13:26:40.667Z,2992
2022-08-16T13:28:03.171Z,3098
2022-08-16T13:28:40.699Z,3173
2022-08-16T13:29:43.769Z,3239
2022-08-16T13:31:43.321Z,3168
2022-08-16T13:32:40.924Z,3098
2022-08-16T13:33:43.490Z,3133
2022-08-16T13:34:43.325Z,3057
2022-08-16T13:35:43.064Z,2992
2022-08-16T13:36:49.271Z,2916
2022-08-16T13:37:41.727Z,2884
2022-08-16T13:38:43.261Z,2881
2022-08-16T13:39:40.680Z,2881
2022-08-16T13:40:40.759Z,2877
2022-08-16T13:41:40.731Z,2872
2022-08-16T13:43:43.676Z,2902
2022-08-16T13:44:56.375Z,2914
2022-08-16T13:45:44.978Z,2888
2022-08-16T13:46:45.778Z,2902
2022-08-16T13:47:41.273Z,2879
2022-08-16T13:48:44.709Z,2884
2022-08-16T13:49:43.728Z,2902
2022-08-16T13:50:51.484Z,2886
2022-08-16T13:51:43.483Z,2828
2022-08-16T13:53:41.115Z,2773
2022-08-16T13:54:43.439Z,2741
2022-08-16T13:55:41.041Z,2754
2022-08-16T13:56:40.657Z,2761
2022-08-16T13:57:53.341Z,2738
2022-08-16T13:58:55.005Z,2727
2022-08-16T13:59:43.610Z,2743
2022-08-16T14:00:40.954Z,2750
2022-08-16T14:01:40.648Z,2773
2022-08-16T14:02:43.171Z,2759
2022-08-16T14:03:40.667Z,2736
2022-08-16T14:04:40.680Z,2731
2022-08-16T14:05:43.594Z,2701
2022-08-16T14:06:40.621Z,2632
2022-08-16T14:07:40.832Z,2697
2022-08-16T14:08:58.835Z,2708
2022-08-16T14:09:40.641Z,2727
2022-08-16T14:10:40.632Z,2814